Time;durP1;ratioP1;P1;durP2;ratioP2;P2;SDS_P1;SDS_P2;PMS_P1;PMS_P2;Temp;Humidity;BMP_temperature;BMP_pressure;BME280_temperature;BME280_humidity;BME280_pressure;Samples;Min_cycle;Max_cycle;Signal;HPM_P1;HPM_P2
2020/12/09 00:02:12;;;;;;;34.63;16.83;;;;;;;0.60;83.20;98277.31;3620513;82;21472;-78
2020/12/09 00:07:14;;;;;;;35.53;18.13;;;;;;;0.62;83.14;98283.16;3692469;80;21369;-78
2020/12/09 00:12:16;;;;;;;35.57;17.40;;;;;;;0.58;83.20;98288.09;3693106;80;21032;-78
2020/12/09 00:17:18;;;;;;;46.00;20.10;;;;;;;0.61;83.27;98292.09;3663896;81;20989;-78
2020/12/09 00:22:23;;;;;;;41.13;20.27;;;;;;;0.65;83.39;98297.19;3691969;80;20993;-77
2020/12/09 00:27:25;;;;;;;37.60;18.20;;;;;;;0.67;83.41;98285.37;3631887;81;21493;-77
2020/12/09 00:32:29;;;;;;;38.50;17.83;;;;;;;0.69;83.27;98291.73;3491271;85;20998;-77
2020/12/09 00:37:34;;;;;;;39.63;18.37;;;;;;;0.68;83.34;98305.94;3551288;83;21021;-77
2020/12/09 00:42:36;;;;;;;32.10;15.73;;;;;;;0.68;83.25;98301.45;3551440;83;21453;-78
2020/12/09 00:47:42;;;;;;;36.30;16.67;;;;;;;0.73;83.12;98299.45;3551505;83;20996;-77
2020/12/09 00:52:45;;;;;;;39.00;17.93;;;;;;;0.68;83.13;98300.66;3567900;82;21061;-78
2020/12/09 00:57:49;;;;;;;37.37;18.17;;;;;;;0.62;83.10;98308.99;3620480;82;20987;-78
2020/12/09 01:02:53;;;;;;;32.60;14.83;;;;;;;0.65;83.36;98304.56;3622274;82;21064;-77
2020/12/09 01:07:57;;;;;;;31.97;14.07;;;;;;;0.69;83.40;98298.31;3693373;80;20992;-78
2020/12/09 01:13:00;;;;;;;30.97;14.90;;;;;;;0.69;83.28;98289.09;3693853;80;21008;-78
2020/12/09 01:18:02;;;;;;;33.13;16.77;;;;;;;0.62;83.20;98291.86;3692722;79;21484;-77
2020/12/09 01:23:04;;;;;;;37.83;17.93;;;;;;;0.57;83.31;98273.83;3692823;80;20989;-77
2020/12/09 01:28:06;;;;;;;31.80;15.17;;;;;;;0.57;83.53;98285.69;3692784;80;21405;-78
2020/12/09 01:33:09;;;;;;;29.03;13.00;;;;;;;0.59;83.53;98276.52;3664153;81;20982;-78
2020/12/09 01:38:10;;;;;;;26.10;13.80;;;;;;;0.59;83.49;98269.11;3693936;80;20985;-78
2020/12/09 01:43:12;;;;;;;33.33;17.17;;;;;;;0.49;83.40;98261.31;3664336;80;20985;-78
2020/12/09 01:48:17;;;;;;;34.70;16.43;;;;;;;0.49;83.49;98265.27;3693988;80;20969;-78
2020/12/09 01:53:19;;;;;;;31.67;16.57;;;;;;;0.49;83.61;98261.31;3664977;79;20981;-76
2020/12/09 01:58:20;;;;;;;27.80;14.23;;;;;;;0.52;83.49;98274.55;3692235;80;21055;-77
2020/12/09 02:03:22;;;;;;;34.93;17.40;;;;;;;0.59;83.54;98278.33;3692067;80;21017;-77
2020/12/09 02:08:24;;;;;;;26.90;13.60;;;;;;;0.65;83.77;98278.20;3692095;80;21032;-77
2020/12/09 02:13:28;;;;;;;29.57;15.23;;;;;;;0.71;83.39;98279.09;3692199;80;21048;-77
2020/12/09 02:18:30;;;;;;;26.50;12.50;;;;;;;0.71;83.22;98272.50;3692184;80;21016;-77
2020/12/09 02:23:32;;;;;;;24.97;12.90;;;;;;;0.68;83.25;98270.34;3692190;80;21017;-78
2020/12/09 02:28:35;;;;;;;28.40;14.57;;;;;;;0.59;83.25;98258.06;3692133;80;21036;-78
2020/12/09 02:33:38;;;;;;;27.33;13.03;;;;;;;0.58;83.21;98259.09;3663877;81;21449;-77
2020/12/09 02:38:42;;;;;;;26.10;12.87;;;;;;;0.54;83.29;98258.49;3663769;81;20977;-78
2020/12/09 02:43:43;;;;;;;32.83;15.77;;;;;;;0.53;83.30;98251.08;3692106;80;20985;-76
2020/12/09 02:48:46;;;;;;;26.60;13.90;;;;;;;0.61;83.41;98251.23;3667921;79;21100;-78
2020/12/09 02:53:48;;;;;;;30.10;15.03;;;;;;;0.66;83.32;98258.72;3726032;79;20977;-77
2020/12/09 02:58:51;;;;;;;24.63;12.57;;;;;;;0.61;83.23;98261.78;3692266;80;20989;-77
2020/12/09 03:03:53;;;;;;;29.57;16.20;;;;;;;0.58;83.11;98262.26;3692231;80;20992;-78
2020/12/09 03:08:55;;;;;;;24.80;13.63;;;;;;;0.54;83.19;98257.17;3663691;80;21040;-77
2020/12/09 03:13:58;;;;;;;23.60;11.97;;;;;;;0.53;83.19;98258.20;3692139;80;20992;-77
2020/12/09 03:19:00;;;;;;;21.73;11.80;;;;;;;0.50;83.27;98244.47;3664010;81;21025;-77
2020/12/09 03:24:02;;;;;;;25.60;13.63;;;;;;;0.48;83.13;98242.58;3692248;80;21072;-77
2020/12/09 03:29:04;;;;;;;28.43;14.77;;;;;;;0.46;83.12;98238.57;3638489;80;21056;-77
2020/12/09 03:34:06;;;;;;;26.77;13.73;;;;;;;0.44;83.40;98230.11;3620251;82;21020;-78
2020/12/09 03:39:08;;;;;;;30.67;15.67;;;;;;;0.48;83.34;98247.84;3620491;82;21028;-78
2020/12/09 03:44:10;;;;;;;29.83;15.50;;;;;;;0.48;83.17;98245.21;3620226;82;21389;-77
2020/12/09 03:49:12;;;;;;;27.17;13.23;;;;;;;0.51;83.30;98245.27;3641273;79;21012;-77
2020/12/09 03:54:14;;;;;;;23.77;13.07;;;;;;;0.50;83.21;98241.84;3720183;79;20996;-76
2020/12/09 03:59:16;;;;;;;26.40;13.00;;;;;;;0.46;83.25;98231.48;3692019;80;21024;-78
2020/12/09 04:04:18;;;;;;;21.30;12.30;;;;;;;0.46;83.26;98230.66;3692351;80;20985;-77
2020/12/09 04:09:20;;;;;;;23.70;13.00;;;;;;;0.41;83.06;98237.17;3663785;81;20985;-78
2020/12/09 04:14:22;;;;;;;24.60;13.43;;;;;;;0.34;83.37;98240.73;3693003;80;21472;-78
2020/12/09 04:19:24;;;;;;;20.67;12.53;;;;;;;0.42;83.49;98236.94;3664068;80;21030;-77
2020/12/09 04:24:26;;;;;;;27.27;14.33;;;;;;;0.37;83.18;98232.87;3692337;80;20984;-78
2020/12/09 04:29:28;;;;;;;23.20;12.03;;;;;;;0.34;83.27;98234.67;3663923;80;20989;-77
2020/12/09 04:34:32;;;;;;;23.43;12.90;;;;;;;0.35;83.40;98221.79;3692307;80;21032;-78
2020/12/09 04:39:35;;;;;;;25.63;12.23;;;;;;;0.33;83.25;98222.00;3664654;81;21023;-78
2020/12/09 04:44:38;;;;;;;24.00;12.23;;;;;;;0.29;83.36;98234.56;3692075;80;21005;-76
2020/12/09 04:49:45;;;;;;;25.13;13.57;;;;;;;0.26;83.27;98248.21;3679902;79;21025;-78
2020/12/09 04:54:52;;;;;;;22.00;11.80;;;;;;;0.20;83.45;98238.59;3712953;79;21444;-78
2020/12/09 05:00:03;;;;;;;19.23;10.80;;;;;;;0.20;83.52;98230.69;3693003;78;21432;-77
2020/12/09 05:05:09;;;;;;;20.17;11.37;;;;;;;0.16;83.67;98227.21;3692236;80;21005;-78
2020/12/09 05:10:15;;;;;;;18.57;9.80;;;;;;;0.16;83.68;98229.05;3692354;80;21004;-77
2020/12/09 05:15:21;;;;;;;19.67;10.20;;;;;;;0.22;83.77;98229.95;3663907;80;20997;-78
2020/12/09 05:20:31;;;;;;;19.30;11.23;;;;;;;0.22;83.58;98236.55;3692477;80;22040;-78
2020/12/09 05:25:36;;;;;;;22.47;11.63;;;;;;;0.21;83.46;98255.52;3659111;80;20973;-78
2020/12/09 05:30:45;;;;;;;20.13;10.00;;;;;;;0.16;83.30;98248.81;3682603;80;21021;-77
2020/12/09 05:36:02;;;;;;;17.17;9.23;;;;;;;0.12;83.42;98255.05;3682067;80;21440;-78
2020/12/09 05:41:11;;;;;;;22.43;11.23;;;;;;;0.13;83.58;98260.61;3682624;80;20937;-77
2020/12/09 05:46:13;;;;;;;22.87;11.77;;;;;;;0.10;83.33;98267.66;3605403;82;21458;-77
2020/12/09 05:51:15;;;;;;;24.53;12.37;;;;;;;0.16;83.54;98260.14;3687977;80;21020;-77
2020/12/09 05:56:22;;;;;;;21.27;11.77;;;;;;;0.27;83.60;98280.12;3588355;81;21009;-77
2020/12/09 06:01:26;;;;;;;18.20;9.87;;;;;;;0.34;83.42;98274.20;3517216;83;20993;-77
2020/12/09 06:06:29;;;;;;;21.50;11.33;;;;;;;0.33;83.13;98283.12;3692115;80;21024;-78
2020/12/09 06:11:33;;;;;;;19.53;9.97;;;;;;;0.30;82.86;98287.55;3663880;81;21005;-77
2020/12/09 06:16:36;;;;;;;20.50;11.63;;;;;;;0.27;83.15;98288.02;3692132;80;20989;-77
2020/12/09 06:21:38;;;;;;;26.17;14.40;;;;;;;0.27;83.09;98285.39;3663689;80;21033;-78
2020/12/09 06:26:40;;;;;;;23.40;12.97;;;;;;;0.29;83.24;98289.89;3692005;80;20977;-78
2020/12/09 06:31:42;;;;;;;22.43;10.73;;;;;;;0.29;83.16;98294.64;3692079;79;21405;-77
2020/12/09 06:36:50;;;;;;;21.20;11.13;;;;;;;0.31;83.04;98302.34;3692064;80;20973;-77
2020/12/09 06:42:00;;;;;;;23.83;12.40;;;;;;;0.31;83.02;98300.49;3686349;79;21028;-78
2020/12/09 06:47:07;;;;;;;24.20;11.67;;;;;;;0.27;82.97;98307.25;3692152;80;20996;-78
2020/12/09 06:52:15;;;;;;;23.67;12.13;;;;;;;0.26;83.04;98306.97;3658343;80;21009;-77
2020/12/09 06:57:21;;;;;;;23.37;11.97;;;;;;;0.23;82.93;98310.59;3676720;79;21028;-79
2020/12/09 07:02:29;;;;;;;23.83;11.40;;;;;;;0.25;83.12;98307.20;3663611;80;21069;-76
2020/12/09 07:07:46;;;;;;;22.20;11.60;;;;;;;0.27;83.06;98307.25;3640686;80;21469;-78
2020/12/09 07:13:01;;;;;;;23.60;12.00;;;;;;;0.25;82.98;98298.80;3663329;79;21017;-74
2020/12/09 07:18:05;;;;;;;19.17;9.57;;;;;;;0.26;82.87;98306.97;3625721;80;21062;-77
2020/12/09 07:23:08;;;;;;;22.27;13.13;;;;;;;0.30;82.93;98314.69;3620275;80;21022;-77
2020/12/09 07:28:11;;;;;;;19.23;10.90;;;;;;;0.27;82.89;98323.59;3619858;81;21029;-76
2020/12/09 07:33:17;;;;;;;23.97;13.13;;;;;;;0.40;82.79;98345.72;3636263;80;21032;-77
2020/12/09 07:38:19;;;;;;;27.03;13.80;;;;;;;0.44;82.62;98350.81;3683726;79;21034;-78
2020/12/09 07:43:23;;;;;;;26.10;13.67;;;;;;;0.40;82.41;98349.67;3655520;80;21005;-77
2020/12/09 07:48:30;;;;;;;27.27;14.00;;;;;;;0.37;82.50;98337.49;3647329;80;21009;-77
2020/12/09 07:53:31;;;;;;;29.90;15.17;;;;;;;0.39;82.52;98346.74;3611005;81;21082;-78
2020/12/09 07:58:35;;;;;;;27.57;12.27;;;;;;;0.35;82.46;98348.27;3600592;81;21009;-78
2020/12/09 08:03:39;;;;;;;21.57;10.73;;;;;;;0.33;82.48;98353.74;3620271;80;20988;-79
2020/12/09 08:08:44;;;;;;;23.20;11.77;;;;;;;0.34;82.53;98363.78;3615841;80;21020;-77
2020/12/09 08:13:46;;;;;;;30.27;12.47;;;;;;;0.36;82.51;98361.70;3594950;82;21081;-77
2020/12/09 08:18:48;;;;;;;22.60;12.17;;;;;;;0.40;82.48;98372.07;3640371;78;21051;-78
2020/12/09 08:23:54;;;;;;;27.00;13.93;;;;;;;0.35;82.30;98369.34;3686577;79;21064;-79
2020/12/09 08:28:58;;;;;;;22.47;11.13;;;;;;;0.28;82.23;98371.28;3674790;79;22233;-78
2020/12/09 08:34:01;;;;;;;26.30;14.17;;;;;;;0.26;82.38;98379.42;3636018;80;21081;-80
2020/12/09 08:39:03;;;;;;;22.87;12.40;;;;;;;0.30;82.45;98387.67;3681250;79;21021;-78
2020/12/09 08:44:07;;;;;;;22.47;11.70;;;;;;;0.30;82.31;98394.27;3693805;79;21428;-77
2020/12/09 08:49:09;;;;;;;21.43;11.33;;;;;;;0.32;82.36;98375.05;3655172;79;21025;-78
2020/12/09 08:54:11;;;;;;;22.93;11.43;;;;;;;0.37;82.17;98381.77;3676077;79;21432;-77
2020/12/09 08:59:13;;;;;;;21.07;9.93;;;;;;;0.36;82.03;98385.95;3646411;80;21473;-78
2020/12/09 09:04:16;;;;;;;25.77;13.20;;;;;;;0.30;81.72;98380.56;3636527;80;21029;-78
2020/12/09 09:09:19;;;;;;;24.03;13.27;;;;;;;0.23;81.74;98381.73;3626864;80;21060;-79
2020/12/09 09:14:21;;;;;;;24.07;11.37;;;;;;;0.16;81.86;98383.95;3676846;79;21041;-78
2020/12/09 09:19:24;;;;;;;22.97;10.87;;;;;;;0.12;81.90;98376.75;3686389;79;21325;-78
2020/12/09 09:24:26;;;;;;;20.77;10.87;;;;;;;0.04;81.80;98382.35;3683015;79;21040;-78
2020/12/09 09:29:32;;;;;;;21.90;12.27;;;;;;;0.04;81.96;98388.94;3628891;79;21081;-77
2020/12/09 09:34:32;;;;;;;20.10;10.13;;;;;;;0.08;82.08;98391.40;3607912;80;21056;-77
2020/12/09 09:39:39;;;;;;;25.43;12.13;;;;;;;0.12;82.15;98384.12;3683113;80;21430;-77
2020/12/09 09:44:41;;;;;;;17.77;10.17;;;;;;;0.20;81.97;98382.16;3690656;79;22145;-77
2020/12/09 09:49:44;;;;;;;23.83;11.07;;;;;;;0.21;81.71;98393.00;3683678;78;21038;-77
2020/12/09 09:54:46;;;;;;;25.47;12.33;;;;;;;0.10;81.53;98384.06;3683442;79;21036;-77
2020/12/09 09:59:48;;;;;;;19.67;10.30;;;;;;;0.09;81.78;98385.11;3696380;80;21259;-77
2020/12/09 10:04:51;;;;;;;24.63;13.60;;;;;;;0.09;81.79;98392.48;3699051;79;21029;-77
2020/12/09 10:09:53;;;;;;;25.53;13.30;;;;;;;0.08;81.79;98381.66;3681575;78;21040;-76
2020/12/09 10:14:55;;;;;;;24.20;11.53;;;;;;;0.17;81.97;98375.55;3662674;80;21055;-77
2020/12/09 10:19:58;;;;;;;17.63;9.47;;;;;;;0.21;81.75;98371.42;3656541;79;21072;-76
2020/12/09 10:25:03;;;;;;;21.83;12.00;;;;;;;0.20;81.53;98378.21;3701149;79;21039;-77
2020/12/09 10:30:06;;;;;;;21.17;12.10;;;;;;;0.13;81.37;98371.24;3680930;79;21508;-77
2020/12/09 10:35:08;;;;;;;22.60;12.53;;;;;;;0.18;81.45;98365.80;3625331;81;21460;-76
2020/12/09 10:40:11;;;;;;;22.17;11.33;;;;;;;0.18;81.37;98361.84;3616916;80;21005;-76
2020/12/09 10:45:14;;;;;;;29.00;14.27;;;;;;;0.26;81.62;98353.59;3635304;80;20946;-75
2020/12/09 10:50:16;;;;;;;25.97;13.60;;;;;;;0.27;81.58;98345.46;3635163;79;21036;-77
2020/12/09 10:55:18;;;;;;;21.90;11.37;;;;;;;0.35;81.42;98356.17;3682910;79;21528;-76
2020/12/09 11:00:20;;;;;;;21.47;11.23;;;;;;;0.34;81.24;98347.98;3675184;78;21005;-76
2020/12/09 11:05:23;;;;;;;26.60;13.03;;;;;;;0.33;80.99;98345.05;3617597;80;21540;-76
2020/12/09 11:10:25;;;;;;;26.73;13.23;;;;;;;0.28;80.96;98348.39;3540757;83;21076;-77
2020/12/09 11:15:27;;;;;;;24.57;13.17;;;;;;;0.26;81.15;98335.16;3702300;79;21516;-76
2020/12/09 11:20:29;;;;;;;24.77;14.40;;;;;;;0.27;81.07;98338.08;3630692;80;20976;-76
2020/12/09 11:25:31;;;;;;;27.30;13.40;;;;;;;0.20;80.88;98329.48;3693298;79;21032;-76
2020/12/09 11:30:34;;;;;;;21.10;12.10;;;;;;;0.12;80.98;98331.97;3628646;81;21076;-76
2020/12/09 11:35:36;;;;;;;28.33;15.00;;;;;;;0.14;81.21;98329.89;3662035;79;21040;-76
2020/12/09 11:40:40;;;;;;;25.83;12.77;;;;;;;0.13;81.39;98323.04;3679318;80;21029;-77
2020/12/09 11:45:43;;;;;;;24.67;13.37;;;;;;;0.18;81.32;98335.50;3680808;80;21456;-77
2020/12/09 11:50:45;;;;;;;21.87;11.30;;;;;;;0.20;81.11;98326.84;3714054;79;21043;-77
2020/12/09 11:55:47;;;;;;;23.90;13.07;;;;;;;0.12;80.81;98329.33;3697279;79;21012;-77
2020/12/09 12:00:49;;;;;;;27.30;14.67;;;;;;;0.15;81.30;98332.31;3679123;80;21029;-77
2020/12/09 12:05:53;;;;;;;31.50;15.80;;;;;;;0.14;81.09;98333.34;3646810;80;21588;-78
2020/12/09 12:10:55;;;;;;;22.27;12.77;;;;;;;0.18;81.26;98331.55;3627579;80;21056;-77
2020/12/09 12:15:57;;;;;;;26.57;12.40;;;;;;;0.20;81.24;98326.84;3532448;81;21498;-77
2020/12/09 12:20:59;;;;;;;30.60;13.93;;;;;;;0.18;81.07;98331.55;3682501;78;21073;-76
2020/12/09 12:26:02;;;;;;;33.10;16.67;;;;;;;0.16;81.04;98331.79;3696591;80;21040;-78
2020/12/09 12:31:04;;;;;;;35.60;17.20;;;;;;;0.20;81.41;98326.34;3689806;80;21267;-77
2020/12/09 12:36:09;;;;;;;31.07;15.63;;;;;;;0.22;81.14;98327.42;3682185;80;21090;-77
2020/12/09 12:41:12;;;;;;;27.00;14.03;;;;;;;0.31;81.32;98316.83;3666778;80;20997;-78
2020/12/09 12:46:14;;;;;;;25.47;13.37;;;;;;;0.36;81.31;98322.18;3683340;80;21087;-77
2020/12/09 12:51:24;;;;;;;32.77;16.37;;;;;;;0.42;81.25;98317.81;3572406;81;21043;-76
2020/12/09 12:56:26;;;;;;;27.97;13.97;;;;;;;0.45;80.97;98317.37;3586585;82;21013;-79
2020/12/09 13:01:28;;;;;;;27.00;12.93;;;;;;;0.39;80.72;98310.38;3587075;82;21481;-79
2020/12/09 13:06:30;;;;;;;32.50;16.47;;;;;;;0.37;80.88;98315.09;3606708;80;21059;-79
2020/12/09 13:11:31;;;;;;;32.63;15.70;;;;;;;0.36;80.78;98314.80;3595926;82;21048;-78
2020/12/09 13:16:33;;;;;;;28.03;14.50;;;;;;;0.32;80.96;98316.59;3648725;81;21630;-78
2020/12/09 13:21:35;;;;;;;39.70;19.03;;;;;;;0.38;81.26;98316.17;3735246;79;21032;-77
2020/12/09 13:26:43;;;;;;;41.20;21.20;;;;;;;0.42;80.95;98321.27;3694310;79;21044;-78
2020/12/09 13:31:50;;;;;;;33.03;16.33;;;;;;;0.40;80.82;98327.27;3607461;81;21100;-78
2020/12/09 13:36:54;;;;;;;40.43;20.37;;;;;;;0.38;80.78;98322.77;3588503;82;21048;-78
2020/12/09 13:41:57;;;;;;;41.33;20.47;;;;;;;0.39;80.90;98325.66;3553258;81;21095;-77
2020/12/09 13:47:00;;;;;;;40.77;18.73;;;;;;;0.43;80.93;98335.23;3660912;80;21040;-78
2020/12/09 13:52:02;;;;;;;30.93;16.73;;;;;;;0.47;81.02;98335.05;3711686;79;21481;-78
2020/12/09 13:57:04;;;;;;;32.43;17.90;;;;;;;0.48;80.76;98323.48;3644304;80;21334;-78
2020/12/09 14:02:08;;;;;;;40.47;18.57;;;;;;;0.46;80.75;98330.31;3688412;79;21008;-78
2020/12/09 14:07:10;;;;;;;41.27;20.50;;;;;;;0.42;80.66;98321.27;3668775;80;20993;-78
2020/12/09 14:12:12;;;;;;;41.20;17.77;;;;;;;0.36;80.66;98322.18;3632852;80;21060;-77
2020/12/09 14:21:16;;;;;;;35.90;16.40;;;;;;;0.33;80.90;98320.80;3831133;75;23249;-72
2020/12/09 14:31:33;;;;;;;31.17;14.53;;;;;;;0.32;80.53;98319.72;3887710;74;24138;-78
2020/12/09 14:36:36;;;;;;;39.00;18.80;;;;;;;0.21;80.41;98328.45;3800254;75;21027;-78
2020/12/09 14:41:46;;;;;;;26.03;14.27;;;;;;;0.18;80.61;98323.13;3841574;75;21442;-78
2020/12/09 14:46:49;;;;;;;38.80;18.73;;;;;;;0.15;80.77;98323.09;3855002;75;21385;-78
2020/12/09 14:51:51;;;;;;;33.97;17.03;;;;;;;0.14;80.84;98317.53;3634501;80;21345;-78
2020/12/09 14:56:55;;;;;;;44.10;20.70;;;;;;;0.13;80.71;98321.19;3657033;79;21008;-78
2020/12/09 15:01:58;;;;;;;29.80;13.93;;;;;;;0.10;80.87;98317.71;3649348;79;21051;-79
2020/12/09 15:07:00;;;;;;;47.33;22.30;;;;;;;0.09;80.77;98323.21;3659047;79;21328;-80
2020/12/09 15:12:03;;;;;;;43.50;20.53;;;;;;;0.09;80.85;98329.27;3675429;79;20996;-80
2020/12/09 15:17:05;;;;;;;37.40;17.53;;;;;;;0.08;80.89;98333.45;3619327;81;20992;-79
2020/12/09 15:22:09;;;;;;;35.40;17.33;;;;;;;0.10;80.84;98328.74;3625010;81;21005;-79
2020/12/09 15:27:11;;;;;;;50.77;22.60;;;;;;;0.10;80.99;98325.61;3695045;80;21493;-79
2020/12/09 15:32:14;;;;;;;32.50;16.93;;;;;;;0.07;80.89;98337.11;3638061;81;21059;-79
2020/12/09 15:37:17;;;;;;;39.03;19.33;;;;;;;0.11;80.87;98336.44;3694534;80;21036;-79
2020/12/09 15:42:19;;;;;;;37.07;16.93;;;;;;;0.08;80.83;98334.77;3611595;81;21013;-79
2020/12/09 15:47:21;;;;;;;42.03;20.93;;;;;;;0.04;80.82;98337.58;3667162;80;21040;-79
2020/12/09 15:52:23;;;;;;;30.00;14.60;;;;;;;0.08;81.06;98347.94;3691832;79;20984;-79
2020/12/09 15:57:26;;;;;;;38.67;18.27;;;;;;;0.05;80.63;98346.56;3699019;80;21044;-79
2020/12/09 16:02:29;;;;;;;35.63;16.33;;;;;;;-0.02;80.51;98340.62;3643343;81;21012;-78
2020/12/09 16:07:35;;;;;;;36.97;17.87;;;;;;;-0.10;80.62;98341.78;3637989;81;21511;-80
2020/12/09 16:12:38;;;;;;;24.00;12.90;;;;;;;-0.16;80.62;98353.73;3631052;81;21004;-79
2020/12/09 16:17:43;;;;;;;35.03;15.53;;;;;;;-0.21;80.62;98343.38;3610430;80;21076;-79
2020/12/09 16:22:45;;;;;;;35.97;15.63;;;;;;;-0.26;80.62;98348.52;3627149;81;21060;-79
2020/12/09 16:27:47;;;;;;;29.67;14.37;;;;;;;-0.35;80.43;98344.60;3687325;79;20987;-79
2020/12/09 16:32:53;;;;;;;33.43;15.47;;;;;;;-0.41;80.61;98342.36;3701797;80;21035;-79
2020/12/09 16:37:53;;;;;;;27.23;14.77;;;;;;;-0.44;80.70;98346.77;3680676;79;21026;-79
2020/12/09 16:42:55;;;;;;;29.73;14.60;;;;;;;-0.45;80.77;98347.80;3674189;80;20987;-79
2020/12/09 16:47:58;;;;;;;38.40;16.43;;;;;;;-0.46;80.78;98353.28;3653482;80;21412;-79
2020/12/09 16:53:02;;;;;;;29.23;14.87;;;;;;;-0.44;80.80;98350.72;3584893;80;21011;-79
2020/12/09 16:58:04;;;;;;;33.70;17.63;;;;;;;-0.46;80.76;98348.84;3646515;81;21507;-79
2020/12/09 17:03:06;;;;;;;25.90;13.23;;;;;;;-0.49;80.68;98353.25;3603254;81;21010;-79
2020/12/09 17:08:08;;;;;;;22.27;10.83;;;;;;;-0.52;80.65;98355.81;3586219;82;21032;-80
2020/12/09 17:13:10;;;;;;;33.57;15.50;;;;;;;-0.58;80.50;98351.44;3536930;84;21036;-80
2020/12/09 17:18:12;;;;;;;34.93;17.20;;;;;;;-0.60;80.67;98347.42;3538615;82;21469;-80
2020/12/09 17:23:15;;;;;;;30.77;14.57;;;;;;;-0.62;80.89;98338.45;3703799;80;20995;-80
2020/12/09 17:28:17;;;;;;;26.43;12.90;;;;;;;-0.64;80.70;98337.06;3698379;79;21031;-80
2020/12/09 17:33:19;;;;;;;32.40;15.47;;;;;;;-0.62;80.92;98316.61;3629759;81;21396;-79
2020/12/09 17:38:21;;;;;;;37.77;17.50;;;;;;;-0.63;80.92;98310.55;3615710;81;21052;-77
2020/12/09 17:43:23;;;;;;;38.10;18.03;;;;;;;-0.59;81.10;98310.39;3620444;81;22122;-80
2020/12/09 17:48:25;;;;;;;38.07;18.50;;;;;;;-0.60;80.91;98323.25;3639170;79;21056;-80
2020/12/09 17:53:29;;;;;;;27.53;13.83;;;;;;;-0.57;81.00;98313.58;3643485;81;21496;-80
2020/12/09 17:58:31;;;;;;;28.93;14.00;;;;;;;-0.55;81.00;98316.77;3641916;81;21012;-80
2020/12/09 18:03:33;;;;;;;37.13;17.83;;;;;;;-0.59;80.95;98319.60;3640661;81;21052;-80
2020/12/09 18:08:35;;;;;;;34.30;15.57;;;;;;;-0.57;80.97;98318.84;3658195;79;20973;-79
2020/12/09 18:13:37;;;;;;;29.53;14.83;;;;;;;-0.56;80.92;98324.41;3638944;81;21040;-80
2020/12/09 18:18:41;;;;;;;25.67;12.53;;;;;;;-0.58;80.67;98327.76;3690412;80;21059;-80
2020/12/09 18:23:43;;;;;;;28.47;14.30;;;;;;;-0.63;80.70;98326.84;3694040;80;21024;-80
2020/12/09 18:28:46;;;;;;;31.13;15.53;;;;;;;-0.61;80.99;98321.64;3634329;81;21374;-80
2020/12/09 18:33:49;;;;;;;35.83;16.63;;;;;;;-0.61;81.01;98324.80;3650276;81;21129;-79
2020/12/09 18:38:51;;;;;;;39.30;19.03;;;;;;;-0.58;81.01;98329.08;3607052;82;21029;-79
2020/12/09 18:43:54;;;;;;;39.63;18.67;;;;;;;-0.55;80.87;98335.19;3649692;81;21051;-79
2020/12/09 18:48:56;;;;;;;33.13;14.83;;;;;;;-0.55;81.02;98343.09;3657356;80;21017;-79
2020/12/09 18:53:58;;;;;;;29.63;15.40;;;;;;;-0.55;80.87;98327.30;3627457;81;20976;-79
2020/12/09 18:59:01;;;;;;;37.33;16.37;;;;;;;-0.59;80.82;98323.55;3637782;81;21079;-79
2020/12/09 19:04:03;;;;;;;36.03;17.00;;;;;;;-0.61;80.68;98326.91;3661164;80;21031;-79
2020/12/09 19:09:05;;;;;;;28.77;14.50;;;;;;;-0.65;80.76;98319.17;3656302;81;20944;-78
2020/12/09 19:14:08;;;;;;;36.30;17.03;;;;;;;-0.64;80.91;98311.58;3653056;81;21047;-79
2020/12/09 19:19:10;;;;;;;38.57;17.43;;;;;;;-0.64;80.93;98315.52;3592935;82;21039;-80
2020/12/09 19:24:13;;;;;;;27.67;13.90;;;;;;;-0.64;80.85;98313.38;3702180;80;21522;-79
2020/12/09 19:29:15;;;;;;;30.20;14.00;;;;;;;-0.68;80.72;98308.31;3660496;80;21384;-79
2020/12/09 19:34:18;;;;;;;31.83;15.23;;;;;;;-0.70;80.63;98317.23;3627813;81;21024;-79
2020/12/09 19:39:20;;;;;;;39.33;17.20;;;;;;;-0.75;80.56;98329.45;3673295;80;21053;-80
2020/12/09 19:44:23;;;;;;;39.87;17.10;;;;;;;-0.74;80.69;98327.09;3679167;80;20988;-79
2020/12/09 19:49:25;;;;;;;34.80;16.97;;;;;;;-0.69;80.97;98349.59;3662383;79;21027;-79
2020/12/09 19:54:28;;;;;;;44.40;19.07;;;;;;;-0.64;80.81;98338.38;3662911;80;21515;-79
2020/12/09 19:59:30;;;;;;;36.40;18.40;;;;;;;-0.60;80.93;98348.74;3663902;80;21011;-79
2020/12/09 20:04:32;;;;;;;39.80;16.67;;;;;;;-0.63;80.64;98350.02;3644059;81;21055;-80
2020/12/09 20:09:34;;;;;;;33.10;15.30;;;;;;;-0.64;80.53;98352.84;3654051;80;21067;-80
2020/12/09 20:14:38;;;;;;;31.03;15.70;;;;;;;-0.66;80.61;98359.66;3637416;81;21035;-79
2020/12/09 20:19:42;;;;;;;39.27;17.80;;;;;;;-0.68;80.48;98363.03;3694560;80;21051;-80
2020/12/09 20:24:44;;;;;;;37.53;16.90;;;;;;;-0.72;80.39;98356.62;3663878;80;21023;-80
2020/12/09 20:29:47;;;;;;;38.03;16.27;;;;;;;-0.74;80.51;98356.03;3650737;80;20996;-80
2020/12/09 20:34:50;;;;;;;30.57;14.47;;;;;;;-0.77;80.55;98359.94;3627483;81;21024;-80
2020/12/09 20:39:52;;;;;;;32.10;14.50;;;;;;;-0.83;80.50;98352.13;3650444;81;20992;-79
2020/12/09 20:44:54;;;;;;;28.13;11.97;;;;;;;-0.86;80.49;98349.43;3642438;81;21048;-80
2020/12/09 20:49:56;;;;;;;34.53;14.50;;;;;;;-0.94;80.58;98345.27;3633003;79;21484;-80
2020/12/09 20:54:58;;;;;;;32.47;16.07;;;;;;;-1.00;80.54;98339.61;3645078;80;21024;-79
2020/12/09 21:00:00;;;;;;;29.37;13.17;;;;;;;-1.07;80.65;98330.48;3633705;81;21044;-79
2020/12/09 21:05:07;;;;;;;32.40;12.63;;;;;;;-1.10;80.87;98327.52;3564199;81;20988;-78
2020/12/09 21:10:10;;;;;;;33.10;15.73;;;;;;;-1.11;80.99;98331.17;3722014;79;21007;-78
2020/12/09 21:15:11;;;;;;;33.77;14.70;;;;;;;-1.11;80.87;98327.22;3701849;80;20987;-80
2020/12/09 21:20:18;;;;;;;29.07;12.97;;;;;;;-1.14;80.89;98317.16;3744553;79;20985;-79
2020/12/09 21:25:17;;;;;;;34.43;16.77;;;;;;;-1.08;81.13;98318.39;3672248;80;20992;-79
2020/12/09 21:30:19;;;;;;;36.97;18.33;;;;;;;-1.07;81.03;98316.03;3574736;81;21507;-79
2020/12/09 21:35:22;;;;;;;28.57;12.60;;;;;;;-1.04;81.01;98320.05;3725325;78;21004;-80
2020/12/09 21:40:24;;;;;;;31.70;14.37;;;;;;;-1.06;80.73;98318.16;3695795;80;21052;-79
2020/12/09 21:45:26;;;;;;;43.10;18.10;;;;;;;-1.06;80.89;98322.11;3635812;81;21028;-78
2020/12/09 21:50:29;;;;;;;36.70;15.87;;;;;;;-1.02;81.21;98317.19;3698238;78;21007;-79
2020/12/09 21:55:31;;;;;;;37.97;15.80;;;;;;;-0.98;81.05;98302.08;3693298;79;21044;-78
2020/12/09 22:00:34;;;;;;;43.77;19.03;;;;;;;-0.99;81.15;98295.20;3694457;80;20993;-79
2020/12/09 22:05:37;;;;;;;43.63;18.67;;;;;;;-0.96;80.92;98309.21;3703720;80;21396;-79
2020/12/09 22:10:39;;;;;;;42.63;19.50;;;;;;;-0.94;81.06;98301.89;3706606;80;21015;-80
2020/12/09 22:15:42;;;;;;;47.33;20.10;;;;;;;-0.92;81.11;98296.43;3705988;80;21003;-79
2020/12/09 22:20:44;;;;;;;42.53;19.57;;;;;;;-0.90;81.03;98292.52;3690599;80;21046;-79
2020/12/09 22:25:46;;;;;;;42.10;16.93;;;;;;;-0.97;80.76;98277.89;3642358;78;20956;-79
2020/12/09 22:30:48;;;;;;;31.87;15.27;;;;;;;-1.02;80.78;98269.86;3641267;80;21028;-78
2020/12/09 22:35:50;;;;;;;36.00;14.77;;;;;;;-1.01;80.92;98273.58;3623704;81;21630;-80
2020/12/09 22:40:52;;;;;;;37.93;16.67;;;;;;;-0.99;81.15;98268.91;3705650;80;20992;-79
2020/12/09 22:45:55;;;;;;;36.53;16.83;;;;;;;-1.00;80.97;98258.63;3631401;81;21327;-79
2020/12/09 22:50:58;;;;;;;31.63;15.20;;;;;;;-1.01;80.99;98248.60;3678691;79;20968;-80
2020/12/09 22:56:03;;;;;;;35.73;16.83;;;;;;;-1.01;81.19;98235.45;3702173;80;21459;-79
2020/12/09 23:01:13;;;;;;;26.60;12.70;;;;;;;-0.97;81.10;98231.88;3702477;80;21054;-80
2020/12/09 23:06:21;;;;;;;31.68;13.90;;;;;;;-1.07;80.84;98221.39;3700422;80;28511;-79
2020/12/09 23:11:24;;;;;;;33.97;14.73;;;;;;;-1.14;80.81;98229.10;3644096;81;21075;-79
2020/12/09 23:16:27;;;;;;;32.43;15.60;;;;;;;-1.20;81.02;98224.23;3650078;79;21021;-79
2020/12/09 23:21:29;;;;;;;34.10;16.43;;;;;;;-1.15;81.39;98214.35;3665543;81;21007;-79
2020/12/09 23:26:33;;;;;;;32.93;15.57;;;;;;;-1.14;81.14;98214.64;3650007;81;21052;-79
2020/12/09 23:31:35;;;;;;;33.37;15.63;;;;;;;-1.11;81.21;98198.41;3635807;79;21455;-78